Sagittarian — WCY5210 — position and weather

sailwx.info

Track history (hours):
 
Tides and Currents Weather Stations Pressure Air Temp Water Temp Dewpoint Dewpoint Depression Visibility Wind Speed Wind Dir Waves Ship Positions

Sagittarian

Owner: TAURUS MARINE, SAN FRANCISCO, CA. More information available from US FCC via Universal Licensing System and Coast Guard Vessel Documentation Center.

Last reported at 2016-Aug-15 15:20 UTC. Time now 2016-Oct-01 03:11 UTC.
Position N 37°47' W 122°17'.
Warning: this ship's position is 46 days out of date.

; draft 3 m.

Type: Towing. MMSI: 366969510.

Date/timePositionNaut miles runAvg speedWind from/ knotsBaromVisibWave heightAir tempDewpointWater temp
2016-Aug-15 15:20N 37°47' W 122°17'0 0.3
2016-Aug-15 14:34N 37°47' W 122°18'  
2016-Aug-12 15:33N 37°48' W 122°22'1 1.5
2016-Aug-12 14:33N 37°49' W 122°21'0 0.1
2016-Aug-12 13:33N 37°49' W 122°21'2 1.9
2016-Aug-12 12:33N 37°47' W 122°22'1 0.1
2016-Aug-11 22:13N 37°46' W 122°23'0 0.0
2016-Aug-11 21:33N 37°46' W 122°23'0 0.0
2016-Aug-11 20:33N 37°46' W 122°23'0 0.0
2016-Aug-10 14:17N 37°46' W 122°23'  
2016-Aug-08 02:15N 37°46' W 122°23'4 6.4
2016-Aug-08 01:33N 37°51' W 122°24'4 4.4
2016-Aug-08 00:33N 37°55' W 122°26'8 8.2
2016-Aug-07 23:33N 37°47' W 122°23'1 0.0
2016-Aug-06 18:23N 37°46' W 122°23'5 5.7
2016-Aug-06 17:33N 37°49' W 122°28'2 1.7
2016-Aug-06 16:34N 37°49' W 122°30'6 6.4
2016-Aug-06 15:33N 37°55' W 122°27'11 0.5
2016-Aug-05 18:31N 38°03' W 122°18'10 5.0
2016-Aug-05 16:33N 37°56' W 122°25'  
Track history (hours):
 
Tides and Currents Weather Stations Pressure Air Temp Water Temp Dewpoint Dewpoint Depression Visibility Wind Speed Wind Dir Waves Ship Positions

Sagittarian

Owner: TAURUS MARINE, SAN FRANCISCO, CA. More information available from US FCC via Universal Licensing System and Coast Guard Vessel Documentation Center.

Last reported at 2016-Aug-15 15:20 UTC. Time now 2016-Oct-01 03:11 UTC.
Position N 37°47' W 122°17'.
Warning: this ship's position is 46 days out of date.

; draft 3 m.

Type: Towing. MMSI: 366969510.

Date/timePositionNaut miles runAvg speedWind from/ knotsBaromVisibWave heightAir tempDewpointWater temp
2016-Aug-15 15:20N 37°47' W 122°17'0 0.3
2016-Aug-15 14:34N 37°47' W 122°18'  
2016-Aug-12 15:33N 37°48' W 122°22'1 1.5
2016-Aug-12 14:33N 37°49' W 122°21'0 0.1
2016-Aug-12 13:33N 37°49' W 122°21'2 1.9
2016-Aug-12 12:33N 37°47' W 122°22'1 0.1
2016-Aug-11 22:13N 37°46' W 122°23'0 0.0
2016-Aug-11 21:33N 37°46' W 122°23'0 0.0
2016-Aug-11 20:33N 37°46' W 122°23'0 0.0
2016-Aug-10 14:17N 37°46' W 122°23'  
2016-Aug-08 02:15N 37°46' W 122°23'4 6.4
2016-Aug-08 01:33N 37°51' W 122°24'4 4.4
2016-Aug-08 00:33N 37°55' W 122°26'8 8.2
2016-Aug-07 23:33N 37°47' W 122°23'1 0.0
2016-Aug-06 18:23N 37°46' W 122°23'5 5.7
2016-Aug-06 17:33N 37°49' W 122°28'2 1.7
2016-Aug-06 16:34N 37°49' W 122°30'6 6.4
2016-Aug-06 15:33N 37°55' W 122°27'11 0.5
2016-Aug-05 18:31N 38°03' W 122°18'10 5.0
2016-Aug-05 16:33N 37°56' W 122°25'  

Dump ship's entire track history